Dati Storici

Data ora Umidita' aria (%) Temperatura aria (°C) Rad globale (W/m²) Gonioanemometro (°) Tacoanemometro (m/s) Pioggia (mm)
07-06-2020 03:30 97.7 % 19.263 -57.65 1.504 0 0
07-06-2020 03:20 97.7 % 19.315 -66.277 1.002 0 0
07-06-2020 03:10 97.7 % 19.122 -50.854 0.951 0 0
07-06-2020 03:00 97.7 % 18.974 -58.637 0.747 0 0
07-06-2020 02:50 97.7 % 18.872 -57.74 0.623 0 0
07-06-2020 02:40 97.7 % 18.92 -68.246 0.613 0 0
07-06-2020 02:30 97.7 % 18.949 -55.38 0.763 0 0
07-06-2020 02:20 97.7 % 18.988 -46.458 1.011 0 0
07-06-2020 02:10 97.7 % 18.991 -29.211 1.064 0 0
07-06-2020 02:00 97.7 % 19.07 -36.665 1.285 0 0
07-06-2020 01:50 97.7 % 19.097 -51.916 0.897 0 0
07-06-2020 01:40 97.7 % 19.11 -63.306 0.525 0 0
07-06-2020 01:30 97.6 % 19.164 -64.846 0.842 0 0
07-06-2020 01:20 97.6 % 19.136 -44.275 1.009 0 0
07-06-2020 01:10 96.8 % 19.029 -50.007 0.652 0 0
07-06-2020 01:00 96.9 % 19.077 -33.574 0.715 0 0
07-06-2020 00:50 97.1 % 18.897 -2.937 0.871 0 0
07-06-2020 00:40 96.5 % 18.952 -20.041 0.983 0 0
07-06-2020 00:30 96.2 % 18.847 -55.202 0.584 0 0
07-06-2020 00:20 95.4 % 19.042 -53.486 0.383 0 0

I dati sono presentati in modo automatico a scopo informativo. In seguito a verifica i dati possono subire modifiche o essere invalidati e non riportati negli archivi definitivi.